sensor_id;sensor_type;location;lat;lon;timestamp;temperature;humidity
9998;DHT22;5038;53.064;8.624;2022-07-29T00:01:18;16.10;92.50
9998;DHT22;5038;53.064;8.624;2022-07-29T00:03:48;16.10;92.60
9998;DHT22;5038;53.064;8.624;2022-07-29T00:06:17;16.10;92.70
9998;DHT22;5038;53.064;8.624;2022-07-29T00:08:46;16.10;92.80
9998;DHT22;5038;53.064;8.624;2022-07-29T00:11:14;16.10;92.80
9998;DHT22;5038;53.064;8.624;2022-07-29T00:13:42;16.00;92.80
9998;DHT22;5038;53.064;8.624;2022-07-29T00:16:16;16.00;92.80
9998;DHT22;5038;53.064;8.624;2022-07-29T00:18:45;16.00;92.90
9998;DHT22;5038;53.064;8.624;2022-07-29T00:21:15;15.90;92.90
9998;DHT22;5038;53.064;8.624;2022-07-29T00:23:43;16.00;93.00
9998;DHT22;5038;53.064;8.624;2022-07-29T00:26:11;15.90;93.00
9998;DHT22;5038;53.064;8.624;2022-07-29T00:28:39;15.90;93.10
9998;DHT22;5038;53.064;8.624;2022-07-29T00:31:07;15.80;93.30
9998;DHT22;5038;53.064;8.624;2022-07-29T00:33:36;15.80;93.10
9998;DHT22;5038;53.064;8.624;2022-07-29T00:36:04;15.80;93.20
9998;DHT22;5038;53.064;8.624;2022-07-29T00:38:33;15.80;93.20
9998;DHT22;5038;53.064;8.624;2022-07-29T00:41:01;15.80;93.20
9998;DHT22;5038;53.064;8.624;2022-07-29T00:43:29;15.80;93.30
9998;DHT22;5038;53.064;8.624;2022-07-29T00:45:57;15.80;93.30
9998;DHT22;5038;53.064;8.624;2022-07-29T00:48:25;15.80;93.40
9998;DHT22;5038;53.064;8.624;2022-07-29T00:50:54;15.80;93.40
9998;DHT22;5038;53.064;8.624;2022-07-29T00:53:25;15.80;93.70
9998;DHT22;5038;53.064;8.624;2022-07-29T00:55:55;15.80;93.50
9998;DHT22;5038;53.064;8.624;2022-07-29T00:58:24;15.70;93.50
9998;DHT22;5038;53.064;8.624;2022-07-29T01:00:54;15.70;93.50
9998;DHT22;5038;53.064;8.624;2022-07-29T01:03:22;15.70;93.60
9998;DHT22;5038;53.064;8.624;2022-07-29T01:05:51;15.70;93.60
9998;DHT22;5038;53.064;8.624;2022-07-29T01:08:20;15.70;93.70
9998;DHT22;5038;53.064;8.624;2022-07-29T01:10:49;15.70;93.70
9998;DHT22;5038;53.064;8.624;2022-07-29T01:13:20;15.70;93.70
9998;DHT22;5038;53.064;8.624;2022-07-29T01:15:53;15.60;93.80
9998;DHT22;5038;53.064;8.624;2022-07-29T01:18:28;15.60;93.80
9998;DHT22;5038;53.064;8.624;2022-07-29T01:21:24;15.60;93.90
9998;DHT22;5038;53.064;8.624;2022-07-29T01:24:20;15.60;93.90
9998;DHT22;5038;53.064;8.624;2022-07-29T01:26:58;15.50;93.90
9998;DHT22;5038;53.064;8.624;2022-07-29T01:29:30;15.50;94.00
9998;DHT22;5038;53.064;8.624;2022-07-29T01:32:07;15.50;94.00
9998;DHT22;5038;53.064;8.624;2022-07-29T01:34:58;15.50;94.00
9998;DHT22;5038;53.064;8.624;2022-07-29T01:37:33;15.50;94.10
9998;DHT22;5038;53.064;8.624;2022-07-29T01:40:11;15.50;94.10
9998;DHT22;5038;53.064;8.624;2022-07-29T01:42:44;15.50;94.20
9998;DHT22;5038;53.064;8.624;2022-07-29T01:45:19;15.40;94.20
9998;DHT22;5038;53.064;8.624;2022-07-29T01:47:56;15.40;94.20
9998;DHT22;5038;53.064;8.624;2022-07-29T01:50:31;15.40;94.30
9998;DHT22;5038;53.064;8.624;2022-07-29T01:53:04;15.40;94.30
9998;DHT22;5038;53.064;8.624;2022-07-29T01:55:35;15.40;94.30
9998;DHT22;5038;53.064;8.624;2022-07-29T01:58:05;15.30;94.30
9998;DHT22;5038;53.064;8.624;2022-07-29T02:00:36;15.30;94.30
9998;DHT22;5038;53.064;8.624;2022-07-29T02:03:11;15.30;94.40
9998;DHT22;5038;53.064;8.624;2022-07-29T02:05:42;15.30;94.40
9998;DHT22;5038;53.064;8.624;2022-07-29T02:08:12;15.30;94.40
9998;DHT22;5038;53.064;8.624;2022-07-29T02:10:42;15.30;94.40
9998;DHT22;5038;53.064;8.624;2022-07-29T02:13:12;15.30;94.50
9998;DHT22;5038;53.064;8.624;2022-07-29T02:15:43;15.30;94.50
9998;DHT22;5038;53.064;8.624;2022-07-29T02:18:16;15.30;94.50
9998;DHT22;5038;53.064;8.624;2022-07-29T02:20:49;15.30;94.60
9998;DHT22;5038;53.064;8.624;2022-07-29T02:23:19;15.20;94.60
9998;DHT22;5038;53.064;8.624;2022-07-29T02:25:50;15.30;94.60
9998;DHT22;5038;53.064;8.624;2022-07-29T02:28:20;15.20;94.60
9998;DHT22;5038;53.064;8.624;2022-07-29T02:30:52;15.20;94.60
9998;DHT22;5038;53.064;8.624;2022-07-29T02:33:21;15.20;94.60
9998;DHT22;5038;53.064;8.624;2022-07-29T02:35:52;15.30;94.70
9998;DHT22;5038;53.064;8.624;2022-07-29T02:38:21;15.20;94.70
9998;DHT22;5038;53.064;8.624;2022-07-29T02:41:10;15.20;95.00
9998;DHT22;5038;53.064;8.624;2022-07-29T02:43:39;15.20;94.70
9998;DHT22;5038;53.064;8.624;2022-07-29T02:46:14;15.20;94.70
9998;DHT22;5038;53.064;8.624;2022-07-29T02:48:59;15.20;94.80
9998;DHT22;5038;53.064;8.624;2022-07-29T02:51:33;15.20;94.80
9998;DHT22;5038;53.064;8.624;2022-07-29T02:54:14;15.20;94.80
9998;DHT22;5038;53.064;8.624;2022-07-29T02:56:45;15.20;94.90
9998;DHT22;5038;53.064;8.624;2022-07-29T02:59:18;15.20;94.90
9998;DHT22;5038;53.064;8.624;2022-07-29T03:01:51;15.20;94.90
9998;DHT22;5038;53.064;8.624;2022-07-29T03:04:21;15.10;94.90
9998;DHT22;5038;53.064;8.624;2022-07-29T03:06:51;15.10;94.90
9998;DHT22;5038;53.064;8.624;2022-07-29T03:09:20;15.10;95.00
9998;DHT22;5038;53.064;8.624;2022-07-29T03:11:49;15.10;95.00
9998;DHT22;5038;53.064;8.624;2022-07-29T03:14:18;15.10;95.00
9998;DHT22;5038;53.064;8.624;2022-07-29T03:16:49;15.10;95.10
9998;DHT22;5038;53.064;8.624;2022-07-29T03:19:19;15.10;95.10
9998;DHT22;5038;53.064;8.624;2022-07-29T03:21:48;15.20;95.10
9998;DHT22;5038;53.064;8.624;2022-07-29T03:24:27;15.20;95.20
9998;DHT22;5038;53.064;8.624;2022-07-29T03:26:56;15.10;95.20
9998;DHT22;5038;53.064;8.624;2022-07-29T03:29:25;15.10;95.20
9998;DHT22;5038;53.064;8.624;2022-07-29T03:32:02;15.10;95.20
9998;DHT22;5038;53.064;8.624;2022-07-29T03:34:35;15.10;95.30
9998;DHT22;5038;53.064;8.624;2022-07-29T03:37:04;15.10;95.30
9998;DHT22;5038;53.064;8.624;2022-07-29T03:39:38;15.10;95.40
9998;DHT22;5038;53.064;8.624;2022-07-29T03:42:11;15.10;95.50
9998;DHT22;5038;53.064;8.624;2022-07-29T03:44:42;15.00;95.50
9998;DHT22;5038;53.064;8.624;2022-07-29T03:47:13;15.10;95.50
9998;DHT22;5038;53.064;8.624;2022-07-29T03:49:42;15.00;95.80
9998;DHT22;5038;53.064;8.624;2022-07-29T03:52:12;15.00;95.60
9998;DHT22;5038;53.064;8.624;2022-07-29T03:54:41;15.00;95.60
9998;DHT22;5038;53.064;8.624;2022-07-29T03:57:11;15.00;95.70
9998;DHT22;5038;53.064;8.624;2022-07-29T03:59:40;15.00;95.70
9998;DHT22;5038;53.064;8.624;2022-07-29T04:02:10;15.00;95.80
9998;DHT22;5038;53.064;8.624;2022-07-29T04:04:43;15.00;95.80
9998;DHT22;5038;53.064;8.624;2022-07-29T04:07:12;15.00;95.80
9998;DHT22;5038;53.064;8.624;2022-07-29T04:09:40;15.00;95.80
9998;DHT22;5038;53.064;8.624;2022-07-29T04:12:09;15.00;95.90
9998;DHT22;5038;53.064;8.624;2022-07-29T04:14:37;15.00;96.00
9998;DHT22;5038;53.064;8.624;2022-07-29T04:17:05;15.00;96.00
9998;DHT22;5038;53.064;8.624;2022-07-29T04:19:34;15.00;96.00
9998;DHT22;5038;53.064;8.624;2022-07-29T04:22:04;15.00;96.10
9998;DHT22;5038;53.064;8.624;2022-07-29T04:24:32;14.90;96.10
9998;DHT22;5038;53.064;8.624;2022-07-29T04:27:00;15.00;96.20
9998;DHT22;5038;53.064;8.624;2022-07-29T04:29:28;15.00;96.20
9998;DHT22;5038;53.064;8.624;2022-07-29T04:31:56;14.90;96.20
9998;DHT22;5038;53.064;8.624;2022-07-29T04:34:24;15.00;96.30
9998;DHT22;5038;53.064;8.624;2022-07-29T04:36:54;15.00;96.30
9998;DHT22;5038;53.064;8.624;2022-07-29T04:39:24;15.00;96.30
9998;DHT22;5038;53.064;8.624;2022-07-29T04:41:55;15.00;96.40
9998;DHT22;5038;53.064;8.624;2022-07-29T04:44:24;15.00;96.40
9998;DHT22;5038;53.064;8.624;2022-07-29T04:46:55;15.00;96.50
9998;DHT22;5038;53.064;8.624;2022-07-29T04:49:24;15.00;96.50
9998;DHT22;5038;53.064;8.624;2022-07-29T04:51:53;15.00;96.60
9998;DHT22;5038;53.064;8.624;2022-07-29T04:54:21;15.00;96.60
9998;DHT22;5038;53.064;8.624;2022-07-29T04:56:52;15.00;96.60
9998;DHT22;5038;53.064;8.624;2022-07-29T04:59:20;15.00;96.60
9998;DHT22;5038;53.064;8.624;2022-07-29T05:01:49;15.00;96.70
9998;DHT22;5038;53.064;8.624;2022-07-29T05:04:17;15.00;96.70
9998;DHT22;5038;53.064;8.624;2022-07-29T05:06:46;15.00;96.70
9998;DHT22;5038;53.064;8.624;2022-07-29T05:09:14;15.00;96.80
9998;DHT22;5038;53.064;8.624;2022-07-29T05:11:43;15.00;96.80
9998;DHT22;5038;53.064;8.624;2022-07-29T05:14:18;15.00;96.90
9998;DHT22;5038;53.064;8.624;2022-07-29T05:16:47;15.10;97.00
9998;DHT22;5038;53.064;8.624;2022-07-29T05:19:17;15.10;97.00
9998;DHT22;5038;53.064;8.624;2022-07-29T05:21:45;15.10;97.00
9998;DHT22;5038;53.064;8.624;2022-07-29T05:24:14;15.10;97.10
9998;DHT22;5038;53.064;8.624;2022-07-29T05:26:43;15.20;97.10
9998;DHT22;5038;53.064;8.624;2022-07-29T05:29:11;15.20;97.10
9998;DHT22;5038;53.064;8.624;2022-07-29T05:32:01;15.20;97.20
9998;DHT22;5038;53.064;8.624;2022-07-29T05:34:29;15.20;97.20
9998;DHT22;5038;53.064;8.624;2022-07-29T05:36:57;15.30;97.30
9998;DHT22;5038;53.064;8.624;2022-07-29T05:39:25;15.30;97.30
9998;DHT22;5038;53.064;8.624;2022-07-29T05:42:13;15.30;97.30
9998;DHT22;5038;53.064;8.624;2022-07-29T05:44:41;15.40;97.30
9998;DHT22;5038;53.064;8.624;2022-07-29T05:47:11;15.30;97.30
9998;DHT22;5038;53.064;8.624;2022-07-29T05:49:39;15.40;97.40
9998;DHT22;5038;53.064;8.624;2022-07-29T05:52:07;15.40;97.40
9998;DHT22;5038;53.064;8.624;2022-07-29T05:54:36;15.40;97.40
9998;DHT22;5038;53.064;8.624;2022-07-29T05:57:04;15.50;97.50
9998;DHT22;5038;53.064;8.624;2022-07-29T05:59:35;15.50;97.50
9998;DHT22;5038;53.064;8.624;2022-07-29T06:02:04;15.50;97.60
9998;DHT22;5038;53.064;8.624;2022-07-29T06:04:34;15.50;97.60
9998;DHT22;5038;53.064;8.624;2022-07-29T06:07:02;15.60;97.60
9998;DHT22;5038;53.064;8.624;2022-07-29T06:09:32;15.60;97.60
9998;DHT22;5038;53.064;8.624;2022-07-29T06:12:02;15.60;97.60
9998;DHT22;5038;53.064;8.624;2022-07-29T06:14:31;15.70;97.70
9998;DHT22;5038;53.064;8.624;2022-07-29T06:16:59;15.70;97.70
9998;DHT22;5038;53.064;8.624;2022-07-29T06:19:27;15.80;97.80
9998;DHT22;5038;53.064;8.624;2022-07-29T06:21:57;15.80;97.80
9998;DHT22;5038;53.064;8.624;2022-07-29T06:24:25;15.80;97.80
9998;DHT22;5038;53.064;8.624;2022-07-29T06:26:53;15.90;97.80
9998;DHT22;5038;53.064;8.624;2022-07-29T06:29:22;15.90;97.80
9998;DHT22;5038;53.064;8.624;2022-07-29T06:31:50;16.00;97.90
9998;DHT22;5038;53.064;8.624;2022-07-29T06:34:18;16.00;97.90
9998;DHT22;5038;53.064;8.624;2022-07-29T06:36:48;16.10;98.00
9998;DHT22;5038;53.064;8.624;2022-07-29T06:39:19;16.10;97.90
9998;DHT22;5038;53.064;8.624;2022-07-29T06:41:48;16.20;97.90
9998;DHT22;5038;53.064;8.624;2022-07-29T06:44:17;16.20;97.90
9998;DHT22;5038;53.064;8.624;2022-07-29T06:46:46;16.30;97.90
9998;DHT22;5038;53.064;8.624;2022-07-29T06:49:16;16.40;98.00
9998;DHT22;5038;53.064;8.624;2022-07-29T06:51:44;16.40;97.90
9998;DHT22;5038;53.064;8.624;2022-07-29T06:54:12;16.50;97.90
9998;DHT22;5038;53.064;8.624;2022-07-29T06:56:42;16.60;97.90
9998;DHT22;5038;53.064;8.624;2022-07-29T06:59:11;16.60;97.90
9998;DHT22;5038;53.064;8.624;2022-07-29T07:01:41;16.70;97.90
9998;DHT22;5038;53.064;8.624;2022-07-29T07:04:11;16.80;97.90
9998;DHT22;5038;53.064;8.624;2022-07-29T07:06:40;16.90;97.90
9998;DHT22;5038;53.064;8.624;2022-07-29T07:09:09;17.00;97.80
9998;DHT22;5038;53.064;8.624;2022-07-29T07:11:37;17.10;97.80
9998;DHT22;5038;53.064;8.624;2022-07-29T07:14:06;17.40;97.90
9998;DHT22;5038;53.064;8.624;2022-07-29T07:16:34;17.70;98.00
9998;DHT22;5038;53.064;8.624;2022-07-29T07:19:03;18.10;98.00
9998;DHT22;5038;53.064;8.624;2022-07-29T07:21:33;18.50;98.00
9998;DHT22;5038;53.064;8.624;2022-07-29T07:24:02;18.80;97.80
9998;DHT22;5038;53.064;8.624;2022-07-29T07:26:30;19.00;97.60
9998;DHT22;5038;53.064;8.624;2022-07-29T07:28:59;19.30;97.50
9998;DHT22;5038;53.064;8.624;2022-07-29T07:31:28;19.40;97.20
9998;DHT22;5038;53.064;8.624;2022-07-29T07:33:57;19.60;97.10
9998;DHT22;5038;53.064;8.624;2022-07-29T07:36:25;19.80;97.00
9998;DHT22;5038;53.064;8.624;2022-07-29T07:38:54;19.90;96.80
9998;DHT22;5038;53.064;8.624;2022-07-29T07:41:22;20.00;96.50
9998;DHT22;5038;53.064;8.624;2022-07-29T07:43:50;20.20;96.50
9998;DHT22;5038;53.064;8.624;2022-07-29T07:46:19;20.30;96.30
9998;DHT22;5038;53.064;8.624;2022-07-29T07:48:48;20.40;96.20
9998;DHT22;5038;53.064;8.624;2022-07-29T07:51:16;20.60;96.00
9998;DHT22;5038;53.064;8.624;2022-07-29T07:53:45;20.70;96.00
9998;DHT22;5038;53.064;8.624;2022-07-29T07:56:16;20.90;96.00
9998;DHT22;5038;53.064;8.624;2022-07-29T07:58:44;21.10;95.80
9998;DHT22;5038;53.064;8.624;2022-07-29T08:01:12;21.20;95.70
9998;DHT22;5038;53.064;8.624;2022-07-29T08:03:40;21.40;95.50
9998;DHT22;5038;53.064;8.624;2022-07-29T08:06:10;21.60;95.30
9998;DHT22;5038;53.064;8.624;2022-07-29T08:08:38;21.70;95.00
9998;DHT22;5038;53.064;8.624;2022-07-29T08:11:06;21.80;94.80
9998;DHT22;5038;53.064;8.624;2022-07-29T08:13:36;21.90;94.70
9998;DHT22;5038;53.064;8.624;2022-07-29T08:16:06;22.00;94.60
9998;DHT22;5038;53.064;8.624;2022-07-29T08:18:42;22.10;94.40
9998;DHT22;5038;53.064;8.624;2022-07-29T08:21:13;22.20;94.20
9998;DHT22;5038;53.064;8.624;2022-07-29T08:23:42;22.30;94.10
9998;DHT22;5038;53.064;8.624;2022-07-29T08:26:26;22.40;94.00
9998;DHT22;5038;53.064;8.624;2022-07-29T08:28:54;22.50;94.00
9998;DHT22;5038;53.064;8.624;2022-07-29T08:31:23;22.60;93.90
9998;DHT22;5038;53.064;8.624;2022-07-29T08:33:51;22.80;93.80
9998;DHT22;5038;53.064;8.624;2022-07-29T08:36:21;22.90;93.60
9998;DHT22;5038;53.064;8.624;2022-07-29T08:38:49;23.00;93.50
9998;DHT22;5038;53.064;8.624;2022-07-29T08:41:18;23.10;93.50
9998;DHT22;5038;53.064;8.624;2022-07-29T08:43:47;23.20;93.50
9998;DHT22;5038;53.064;8.624;2022-07-29T08:46:15;23.40;93.60
9998;DHT22;5038;53.064;8.624;2022-07-29T08:48:44;23.40;93.10
9998;DHT22;5038;53.064;8.624;2022-07-29T08:51:13;23.40;92.90
9998;DHT22;5038;53.064;8.624;2022-07-29T08:53:45;23.30;92.70
9998;DHT22;5038;53.064;8.624;2022-07-29T08:56:14;23.40;92.60
9998;DHT22;5038;53.064;8.624;2022-07-29T08:58:45;23.40;92.40
9998;DHT22;5038;53.064;8.624;2022-07-29T09:01:22;23.50;92.50
9998;DHT22;5038;53.064;8.624;2022-07-29T09:04:04;23.60;92.50
9998;DHT22;5038;53.064;8.624;2022-07-29T09:06:37;23.80;92.40
9998;DHT22;5038;53.064;8.624;2022-07-29T09:09:08;23.90;92.40
9998;DHT22;5038;53.064;8.624;2022-07-29T09:11:37;24.10;92.40
9998;DHT22;5038;53.064;8.624;2022-07-29T09:14:05;24.20;92.20
9998;DHT22;5038;53.064;8.624;2022-07-29T09:16:47;24.40;92.20
9998;DHT22;5038;53.064;8.624;2022-07-29T09:19:22;24.50;92.30
9998;DHT22;5038;53.064;8.624;2022-07-29T09:21:51;24.60;92.20
9998;DHT22;5038;53.064;8.624;2022-07-29T09:24:38;24.70;92.00
9998;DHT22;5038;53.064;8.624;2022-07-29T09:27:18;24.70;91.70
9998;DHT22;5038;53.064;8.624;2022-07-29T09:29:55;24.70;91.50
9998;DHT22;5038;53.064;8.624;2022-07-29T09:32:24;24.70;91.40
9998;DHT22;5038;53.064;8.624;2022-07-29T09:35:14;24.70;91.50
9998;DHT22;5038;53.064;8.624;2022-07-29T09:37:43;24.70;91.00
9998;DHT22;5038;53.064;8.624;2022-07-29T09:40:15;24.60;90.90
9998;DHT22;5038;53.064;8.624;2022-07-29T09:42:44;24.70;91.10
9998;DHT22;5038;53.064;8.624;2022-07-29T09:45:13;24.70;90.80
9998;DHT22;5038;53.064;8.624;2022-07-29T09:47:53;24.70;90.70
9998;DHT22;5038;53.064;8.624;2022-07-29T09:50:35;24.70;90.60
9998;DHT22;5038;53.064;8.624;2022-07-29T09:53:03;24.70;90.30
9998;DHT22;5038;53.064;8.624;2022-07-29T09:55:32;24.80;90.30
9998;DHT22;5038;53.064;8.624;2022-07-29T09:58:17;24.90;90.40
9998;DHT22;5038;53.064;8.624;2022-07-29T10:00:47;24.90;90.20
9998;DHT22;5038;53.064;8.624;2022-07-29T10:03:16;25.00;90.20
9998;DHT22;5038;53.064;8.624;2022-07-29T10:05:45;25.00;90.10
9998;DHT22;5038;53.064;8.624;2022-07-29T10:08:13;25.10;90.00
9998;DHT22;5038;53.064;8.624;2022-07-29T10:11:09;25.10;89.70
9998;DHT22;5038;53.064;8.624;2022-07-29T10:13:38;25.10;89.50
9998;DHT22;5038;53.064;8.624;2022-07-29T10:16:07;25.10;89.40
9998;DHT22;5038;53.064;8.624;2022-07-29T10:18:35;25.10;89.10
9998;DHT22;5038;53.064;8.624;2022-07-29T10:21:05;25.10;88.90
9998;DHT22;5038;53.064;8.624;2022-07-29T10:23:34;25.00;88.70
9998;DHT22;5038;53.064;8.624;2022-07-29T10:26:15;25.00;88.60
9998;DHT22;5038;53.064;8.624;2022-07-29T10:28:44;25.00;88.30
9998;DHT22;5038;53.064;8.624;2022-07-29T10:31:19;25.00;88.40
9998;DHT22;5038;53.064;8.624;2022-07-29T10:33:56;25.10;88.00
9998;DHT22;5038;53.064;8.624;2022-07-29T10:36:45;25.20;87.90
9998;DHT22;5038;53.064;8.624;2022-07-29T10:39:24;25.20;87.70
9998;DHT22;5038;53.064;8.624;2022-07-29T10:42:21;25.30;87.80
9998;DHT22;5038;53.064;8.624;2022-07-29T10:45:01;25.40;88.10
9998;DHT22;5038;53.064;8.624;2022-07-29T10:47:31;25.60;87.70
9998;DHT22;5038;53.064;8.624;2022-07-29T10:50:02;25.70;87.40
9998;DHT22;5038;53.064;8.624;2022-07-29T10:52:53;25.80;86.90
9998;DHT22;5038;53.064;8.624;2022-07-29T10:55:31;25.80;86.50
9998;DHT22;5038;53.064;8.624;2022-07-29T10:58:17;25.90;86.00
9998;DHT22;5038;53.064;8.624;2022-07-29T11:00:48;25.90;85.60
9998;DHT22;5038;53.064;8.624;2022-07-29T11:03:43;25.90;85.50
9998;DHT22;5038;53.064;8.624;2022-07-29T11:06:17;26.00;85.00
9998;DHT22;5038;53.064;8.624;2022-07-29T11:09:17;26.10;85.40
9998;DHT22;5038;53.064;8.624;2022-07-29T11:12:01;26.20;85.00
9998;DHT22;5038;53.064;8.624;2022-07-29T11:14:56;26.30;85.00
9998;DHT22;5038;53.064;8.624;2022-07-29T11:17:26;26.40;84.60
9998;DHT22;5038;53.064;8.624;2022-07-29T11:20:34;26.40;84.20
9998;DHT22;5038;53.064;8.624;2022-07-29T11:23:24;26.40;83.50
9998;DHT22;5038;53.064;8.624;2022-07-29T11:26:16;26.40;83.10
9998;DHT22;5038;53.064;8.624;2022-07-29T11:28:52;26.40;82.70
9998;DHT22;5038;53.064;8.624;2022-07-29T11:31:34;26.40;82.80
9998;DHT22;5038;53.064;8.624;2022-07-29T11:34:22;26.40;82.60
9998;DHT22;5038;53.064;8.624;2022-07-29T11:37:15;26.40;82.30
9998;DHT22;5038;53.064;8.624;2022-07-29T11:39:47;26.40;82.10
9998;DHT22;5038;53.064;8.624;2022-07-29T11:42:43;26.40;82.20
9998;DHT22;5038;53.064;8.624;2022-07-29T11:45:20;26.50;81.70
9998;DHT22;5038;53.064;8.624;2022-07-29T11:48:18;26.40;81.40
9998;DHT22;5038;53.064;8.624;2022-07-29T11:50:59;26.40;81.00
9998;DHT22;5038;53.064;8.624;2022-07-29T11:53:29;26.40;80.90
9998;DHT22;5038;53.064;8.624;2022-07-29T11:56:00;26.40;80.70
9998;DHT22;5038;53.064;8.624;2022-07-29T11:58:30;26.30;80.50
9998;DHT22;5038;53.064;8.624;2022-07-29T12:00:59;26.30;80.50
9998;DHT22;5038;53.064;8.624;2022-07-29T12:03:32;26.30;80.40
9998;DHT22;5038;53.064;8.624;2022-07-29T12:06:10;26.30;80.40
9998;DHT22;5038;53.064;8.624;2022-07-29T12:08:41;26.30;80.20
9998;DHT22;5038;53.064;8.624;2022-07-29T12:11:18;26.30;80.20
9998;DHT22;5038;53.064;8.624;2022-07-29T12:13:48;26.30;80.00
9998;DHT22;5038;53.064;8.624;2022-07-29T12:16:17;26.40;80.00
9998;DHT22;5038;53.064;8.624;2022-07-29T12:18:58;26.40;79.80
9998;DHT22;5038;53.064;8.624;2022-07-29T12:21:28;26.30;79.40
9998;DHT22;5038;53.064;8.624;2022-07-29T12:23:57;26.30;79.30
9998;DHT22;5038;53.064;8.624;2022-07-29T12:26:35;26.20;79.20
9998;DHT22;5038;53.064;8.624;2022-07-29T12:29:06;26.30;79.20
9998;DHT22;5038;53.064;8.624;2022-07-29T12:31:41;26.20;79.10
9998;DHT22;5038;53.064;8.624;2022-07-29T12:34:14;26.30;79.10
9998;DHT22;5038;53.064;8.624;2022-07-29T12:36:43;26.30;79.10
9998;DHT22;5038;53.064;8.624;2022-07-29T12:39:15;26.30;79.10
9998;DHT22;5038;53.064;8.624;2022-07-29T12:41:44;26.40;79.20
9998;DHT22;5038;53.064;8.624;2022-07-29T12:44:12;26.40;79.10
9998;DHT22;5038;53.064;8.624;2022-07-29T12:46:41;26.50;79.20
9998;DHT22;5038;53.064;8.624;2022-07-29T12:49:09;26.50;79.20
9998;DHT22;5038;53.064;8.624;2022-07-29T12:51:40;26.60;79.20
9998;DHT22;5038;53.064;8.624;2022-07-29T12:54:10;26.60;79.60
9998;DHT22;5038;53.064;8.624;2022-07-29T12:56:41;26.60;78.90
9998;DHT22;5038;53.064;8.624;2022-07-29T12:59:15;26.60;78.80
9998;DHT22;5038;53.064;8.624;2022-07-29T13:01:43;26.60;78.90
9998;DHT22;5038;53.064;8.624;2022-07-29T13:04:25;26.60;78.80
9998;DHT22;5038;53.064;8.624;2022-07-29T13:07:02;26.70;78.90
9998;DHT22;5038;53.064;8.624;2022-07-29T13:09:37;26.70;78.70
9998;DHT22;5038;53.064;8.624;2022-07-29T13:12:07;26.80;78.50
9998;DHT22;5038;53.064;8.624;2022-07-29T13:14:38;26.80;78.10
9998;DHT22;5038;53.064;8.624;2022-07-29T13:17:08;26.80;77.70
9998;DHT22;5038;53.064;8.624;2022-07-29T13:19:38;26.90;77.70
9998;DHT22;5038;53.064;8.624;2022-07-29T13:22:09;26.90;77.60
9998;DHT22;5038;53.064;8.624;2022-07-29T13:24:50;26.90;77.50
9998;DHT22;5038;53.064;8.624;2022-07-29T13:27:20;26.90;77.00
9998;DHT22;5038;53.064;8.624;2022-07-29T13:29:48;26.90;76.60
9998;DHT22;5038;53.064;8.624;2022-07-29T13:32:18;26.80;76.20
9998;DHT22;5038;53.064;8.624;2022-07-29T13:34:54;26.80;76.10
9998;DHT22;5038;53.064;8.624;2022-07-29T13:37:24;26.70;76.10
9998;DHT22;5038;53.064;8.624;2022-07-29T13:39:56;26.70;76.10
9998;DHT22;5038;53.064;8.624;2022-07-29T13:42:24;26.60;76.10
9998;DHT22;5038;53.064;8.624;2022-07-29T13:44:52;26.60;75.90
9998;DHT22;5038;53.064;8.624;2022-07-29T13:47:21;26.60;75.80
9998;DHT22;5038;53.064;8.624;2022-07-29T13:50:00;26.60;75.60
9998;DHT22;5038;53.064;8.624;2022-07-29T13:52:30;26.50;75.70
9998;DHT22;5038;53.064;8.624;2022-07-29T13:54:58;26.50;75.60
9998;DHT22;5038;53.064;8.624;2022-07-29T13:57:27;26.50;75.50
9998;DHT22;5038;53.064;8.624;2022-07-29T13:59:56;26.50;75.20
9998;DHT22;5038;53.064;8.624;2022-07-29T14:02:24;26.40;75.20
9998;DHT22;5038;53.064;8.624;2022-07-29T14:04:52;26.40;75.40
9998;DHT22;5038;53.064;8.624;2022-07-29T14:07:21;26.40;75.50
9998;DHT22;5038;53.064;8.624;2022-07-29T14:09:51;26.40;75.60
9998;DHT22;5038;53.064;8.624;2022-07-29T14:12:19;26.40;75.70
9998;DHT22;5038;53.064;8.624;2022-07-29T14:14:47;26.40;75.90
9998;DHT22;5038;53.064;8.624;2022-07-29T14:17:16;26.40;76.00
9998;DHT22;5038;53.064;8.624;2022-07-29T14:19:44;26.40;75.90
9998;DHT22;5038;53.064;8.624;2022-07-29T14:22:12;26.30;75.90
9998;DHT22;5038;53.064;8.624;2022-07-29T14:24:40;26.30;76.10
9998;DHT22;5038;53.064;8.624;2022-07-29T14:27:10;26.30;76.20
9998;DHT22;5038;53.064;8.624;2022-07-29T14:29:38;26.20;76.70
9998;DHT22;5038;53.064;8.624;2022-07-29T14:32:07;26.20;76.10
9998;DHT22;5038;53.064;8.624;2022-07-29T14:34:37;26.20;76.10
9998;DHT22;5038;53.064;8.624;2022-07-29T14:37:06;26.20;76.10
9998;DHT22;5038;53.064;8.624;2022-07-29T14:39:42;26.10;76.00
9998;DHT22;5038;53.064;8.624;2022-07-29T14:42:11;26.10;76.10
9998;DHT22;5038;53.064;8.624;2022-07-29T14:44:40;26.10;76.20
9998;DHT22;5038;53.064;8.624;2022-07-29T14:47:10;26.00;76.30
9998;DHT22;5038;53.064;8.624;2022-07-29T14:49:38;26.00;76.50
9998;DHT22;5038;53.064;8.624;2022-07-29T14:52:07;25.90;76.50
9998;DHT22;5038;53.064;8.624;2022-07-29T14:54:35;25.90;76.60
9998;DHT22;5038;53.064;8.624;2022-07-29T14:57:03;25.90;76.80
9998;DHT22;5038;53.064;8.624;2022-07-29T14:59:33;25.80;77.00
9998;DHT22;5038;53.064;8.624;2022-07-29T15:02:01;25.80;77.20
9998;DHT22;5038;53.064;8.624;2022-07-29T15:04:30;25.80;77.40
9998;DHT22;5038;53.064;8.624;2022-07-29T15:06:58;25.70;77.60
9998;DHT22;5038;53.064;8.624;2022-07-29T15:09:27;25.60;77.70
9998;DHT22;5038;53.064;8.624;2022-07-29T15:11:55;25.60;78.00
9998;DHT22;5038;53.064;8.624;2022-07-29T15:14:23;25.50;78.10
9998;DHT22;5038;53.064;8.624;2022-07-29T15:16:53;25.50;78.30
9998;DHT22;5038;53.064;8.624;2022-07-29T15:19:21;25.40;78.30
9998;DHT22;5038;53.064;8.624;2022-07-29T15:21:49;25.40;78.50
9998;DHT22;5038;53.064;8.624;2022-07-29T15:24:19;25.30;78.60
9998;DHT22;5038;53.064;8.624;2022-07-29T15:26:48;25.30;78.80
9998;DHT22;5038;53.064;8.624;2022-07-29T15:29:16;25.30;78.90
9998;DHT22;5038;53.064;8.624;2022-07-29T15:31:44;25.20;78.90
9998;DHT22;5038;53.064;8.624;2022-07-29T15:34:14;25.20;78.90
9998;DHT22;5038;53.064;8.624;2022-07-29T15:36:42;25.20;79.00
9998;DHT22;5038;53.064;8.624;2022-07-29T15:39:20;25.10;78.90
9998;DHT22;5038;53.064;8.624;2022-07-29T15:41:48;25.10;78.90
9998;DHT22;5038;53.064;8.624;2022-07-29T15:44:17;25.10;78.90
9998;DHT22;5038;53.064;8.624;2022-07-29T15:46:47;25.10;79.00
9998;DHT22;5038;53.064;8.624;2022-07-29T15:49:34;25.10;79.10
9998;DHT22;5038;53.064;8.624;2022-07-29T15:52:16;25.10;79.20
9998;DHT22;5038;53.064;8.624;2022-07-29T15:54:53;25.10;79.40
9998;DHT22;5038;53.064;8.624;2022-07-29T15:57:22;25.10;79.50
9998;DHT22;5038;53.064;8.624;2022-07-29T15:59:51;25.00;79.60
9998;DHT22;5038;53.064;8.624;2022-07-29T16:02:19;25.10;79.80
9998;DHT22;5038;53.064;8.624;2022-07-29T16:04:49;25.00;80.50
9998;DHT22;5038;53.064;8.624;2022-07-29T16:07:17;25.00;80.60
9998;DHT22;5038;53.064;8.624;2022-07-29T16:09:45;25.00;80.20
9998;DHT22;5038;53.064;8.624;2022-07-29T16:12:20;24.90;80.20
9998;DHT22;5038;53.064;8.624;2022-07-29T16:14:48;24.90;80.40
9998;DHT22;5038;53.064;8.624;2022-07-29T16:17:18;24.90;80.60
9998;DHT22;5038;53.064;8.624;2022-07-29T16:19:46;24.90;80.80
9998;DHT22;5038;53.064;8.624;2022-07-29T16:22:16;24.80;80.80
9998;DHT22;5038;53.064;8.624;2022-07-29T16:24:44;24.80;81.60
9998;DHT22;5038;53.064;8.624;2022-07-29T16:27:13;24.80;81.20
9998;DHT22;5038;53.064;8.624;2022-07-29T16:29:41;24.70;81.40
9998;DHT22;5038;53.064;8.624;2022-07-29T16:32:09;24.70;82.00